createdAt,value
2023-02-03T00:00:20.534Z,7.80
2023-02-03T00:02:48.978Z,7.80
2023-02-03T00:05:18.930Z,7.80
2023-02-03T00:07:47.055Z,7.80
2023-02-03T00:10:16.400Z,7.90
2023-02-03T00:12:44.497Z,7.90
2023-02-03T00:15:12.652Z,8.00
2023-02-03T00:17:40.697Z,8.00
2023-02-03T00:20:09.258Z,8.00
2023-02-03T00:22:38.847Z,7.90
2023-02-03T00:25:07.383Z,7.90
2023-02-03T00:27:35.535Z,7.90
2023-02-03T00:30:03.987Z,7.80
2023-02-03T00:32:32.261Z,7.70
2023-02-03T00:35:00.448Z,7.70
2023-02-03T00:37:29.268Z,7.70
2023-02-03T00:39:59.102Z,7.70
2023-02-03T00:42:27.773Z,7.70
2023-02-03T00:44:55.894Z,7.80
2023-02-03T00:47:24.360Z,7.80
2023-02-03T00:49:52.692Z,7.80
2023-02-03T00:52:21.186Z,7.90
2023-02-03T00:54:53.312Z,7.90
2023-02-03T00:57:23.256Z,7.90
2023-02-03T00:59:51.760Z,7.90
2023-02-03T01:02:20.060Z,7.90
2023-02-03T01:04:48.105Z,7.90
2023-02-03T01:07:16.531Z,7.90
2023-02-03T01:09:44.973Z,7.80
2023-02-03T01:12:13.145Z,7.70
2023-02-03T01:14:44.031Z,7.60
2023-02-03T01:17:12.813Z,7.50
2023-02-03T01:19:40.902Z,7.40
2023-02-03T01:22:08.942Z,7.30
2023-02-03T01:24:39.081Z,7.30
2023-02-03T01:27:07.322Z,7.40
2023-02-03T01:29:35.670Z,7.50
2023-02-03T01:32:05.493Z,7.60
2023-02-03T01:34:33.741Z,7.70
2023-02-03T01:37:01.838Z,7.70
2023-02-03T01:39:29.787Z,7.70
2023-02-03T01:41:57.948Z,7.80
2023-02-03T01:44:45.253Z,7.80
2023-02-03T01:47:17.309Z,7.80
2023-02-03T01:49:48.221Z,7.90
2023-02-03T01:52:16.389Z,7.90
2023-02-03T01:54:45.434Z,7.90
2023-02-03T01:57:16.063Z,7.90
2023-02-03T01:59:45.304Z,7.90
2023-02-03T02:02:14.016Z,7.90
2023-02-03T02:04:51.772Z,7.90
2023-02-03T02:07:19.811Z,7.90
2023-02-03T02:09:47.913Z,8.00
2023-02-03T02:12:16.089Z,8.00
2023-02-03T02:14:44.309Z,8.00
2023-02-03T02:17:14.917Z,8.10
2023-02-03T02:19:53.837Z,8.10
2023-02-03T02:22:23.723Z,8.10
2023-02-03T02:25:03.674Z,8.10
2023-02-03T02:27:53.888Z,8.10
2023-02-03T02:30:33.655Z,8.10
2023-02-03T02:33:05.421Z,8.10
2023-02-03T02:35:36.885Z,8.10
2023-02-03T02:38:06.086Z,8.10
2023-02-03T02:40:37.697Z,8.20
2023-02-03T02:43:10.818Z,8.20
2023-02-03T02:45:43.087Z,8.30
2023-02-03T02:48:14.721Z,8.30
2023-02-03T02:50:44.169Z,8.30
2023-02-03T02:53:12.852Z,8.30
2023-02-03T02:55:43.285Z,8.20
2023-02-03T02:58:13.524Z,8.20
2023-02-03T03:00:41.923Z,8.20
2023-02-03T03:03:18.607Z,8.20
2023-02-03T03:05:49.884Z,8.20
2023-02-03T03:08:22.758Z,8.10
2023-02-03T03:10:51.625Z,8.10
2023-02-03T03:13:23.604Z,8.10
2023-02-03T03:15:53.176Z,8.00
2023-02-03T03:18:24.682Z,8.00
2023-02-03T03:20:54.333Z,7.90
2023-02-03T03:23:25.639Z,7.90
2023-02-03T03:25:55.999Z,7.90
2023-02-03T03:28:26.725Z,7.90
2023-02-03T03:30:55.047Z,7.90
2023-02-03T03:33:24.754Z,7.90
2023-02-03T03:35:56.029Z,7.90
2023-02-03T03:38:25.768Z,7.90
2023-02-03T03:40:56.337Z,7.90
2023-02-03T03:43:26.694Z,8.00
2023-02-03T03:45:56.821Z,8.00
2023-02-03T03:48:29.400Z,8.00
2023-02-03T03:50:58.974Z,8.00
2023-02-03T03:53:29.022Z,8.00
2023-02-03T03:55:58.036Z,8.00
2023-02-03T03:58:27.421Z,8.00
2023-02-03T04:00:56.439Z,8.00
2023-02-03T04:03:25.731Z,8.00
2023-02-03T04:05:56.130Z,8.00
2023-02-03T04:08:24.048Z,8.10
2023-02-03T04:10:51.963Z,8.10
2023-02-03T04:13:20.711Z,8.10
2023-02-03T04:15:48.748Z,8.10
2023-02-03T04:18:16.865Z,8.10
2023-02-03T04:20:44.846Z,8.10
2023-02-03T04:23:14.145Z,8.10
2023-02-03T04:25:42.071Z,8.00
2023-02-03T04:28:10.492Z,8.10
2023-02-03T04:30:38.384Z,8.10
2023-02-03T04:33:09.272Z,8.10
2023-02-03T04:35:37.702Z,8.10
2023-02-03T04:38:05.560Z,8.20
2023-02-03T04:40:35.241Z,8.20
2023-02-03T04:43:06.894Z,8.20
2023-02-03T04:45:34.804Z,8.20
2023-02-03T04:48:04.604Z,8.20
2023-02-03T04:50:32.675Z,8.20
2023-02-03T04:53:01.234Z,8.20
2023-02-03T04:55:29.250Z,8.20
2023-02-03T04:57:58.935Z,8.20
2023-02-03T05:00:27.493Z,8.30
2023-02-03T05:02:55.824Z,8.30
2023-02-03T05:05:23.780Z,8.30
2023-02-03T05:07:51.790Z,8.30
2023-02-03T05:10:19.669Z,8.30
2023-02-03T05:12:47.625Z,8.20
2023-02-03T05:15:17.228Z,8.20
2023-02-03T05:17:45.168Z,8.20
2023-02-03T05:20:13.209Z,8.10
2023-02-03T05:22:41.148Z,8.00
2023-02-03T05:25:10.493Z,8.00
2023-02-03T05:27:39.245Z,8.00
2023-02-03T05:30:07.765Z,8.00
2023-02-03T05:32:37.138Z,8.00
2023-02-03T05:35:05.126Z,8.00
2023-02-03T05:37:33.038Z,8.10
2023-02-03T05:42:55.662Z,8.10
2023-02-03T05:45:24.257Z,8.10
2023-02-03T05:47:52.312Z,8.10
2023-02-03T05:50:22.891Z,8.10
2023-02-03T05:52:53.033Z,8.10
2023-02-03T05:55:21.401Z,8.00
2023-02-03T05:57:49.331Z,8.00
2023-02-03T06:00:21.391Z,8.00
2023-02-03T06:02:52.337Z,8.00
2023-02-03T06:05:20.843Z,8.00
2023-02-03T06:07:49.835Z,8.00
2023-02-03T06:10:19.000Z,8.00
2023-02-03T06:12:47.959Z,7.90
2023-02-03T06:15:16.484Z,7.90
2023-02-03T06:17:48.737Z,7.90
2023-02-03T06:20:18.911Z,7.90
2023-02-03T06:22:47.414Z,7.90
2023-02-03T06:25:15.906Z,7.90
2023-02-03T06:27:44.396Z,7.90
2023-02-03T06:30:13.171Z,7.80
2023-02-03T06:32:41.265Z,7.80
2023-02-03T06:35:11.446Z,7.80
2023-02-03T06:37:39.869Z,7.80
2023-02-03T06:40:08.714Z,7.80
2023-02-03T06:42:36.773Z,7.70
2023-02-03T06:45:05.196Z,7.80
2023-02-03T06:47:33.222Z,7.80
2023-02-03T06:50:01.273Z,7.80
2023-02-03T06:52:30.948Z,7.80
2023-02-03T06:54:59.143Z,7.80
2023-02-03T06:57:27.351Z,7.80
2023-02-03T06:59:55.637Z,7.90
2023-02-03T07:02:23.946Z,7.90
2023-02-03T07:04:53.907Z,7.90
2023-02-03T07:07:22.193Z,8.00
2023-02-03T07:09:51.830Z,8.00
2023-02-03T07:12:19.972Z,8.10
2023-02-03T07:14:48.257Z,8.10
2023-02-03T07:17:16.192Z,8.10
2023-02-03T07:19:46.051Z,8.10
2023-02-03T07:22:16.256Z,8.10
2023-02-03T07:24:44.459Z,8.20
2023-02-03T07:27:15.952Z,8.20
2023-02-03T07:29:44.534Z,8.20
2023-02-03T07:32:13.114Z,8.20
2023-02-03T07:34:41.274Z,8.20
2023-02-03T07:37:09.301Z,8.30
2023-02-03T07:39:37.410Z,8.20
2023-02-03T07:42:05.716Z,8.20
2023-02-03T07:44:40.479Z,8.20
2023-02-03T07:47:08.549Z,8.20
2023-02-03T07:49:36.899Z,8.10
2023-02-03T07:52:05.523Z,8.10
2023-02-03T07:54:34.029Z,8.10
2023-02-03T07:57:02.283Z,8.20
2023-02-03T07:59:31.347Z,8.20
2023-02-03T08:02:01.081Z,8.20
2023-02-03T08:04:29.241Z,8.20
2023-02-03T08:06:57.786Z,8.20
2023-02-03T08:09:26.064Z,8.20
2023-02-03T08:11:54.579Z,8.30
2023-02-03T08:14:22.904Z,8.30
2023-02-03T08:16:58.480Z,8.40
2023-02-03T08:19:29.563Z,8.40
2023-02-03T08:21:59.586Z,8.40
2023-02-03T08:24:27.654Z,8.50
2023-02-03T08:26:55.787Z,8.50
2023-02-03T08:29:23.937Z,8.40
2023-02-03T08:31:52.307Z,8.50
2023-02-03T08:34:20.652Z,8.50
2023-02-03T08:36:50.588Z,8.60
2023-02-03T08:39:18.862Z,8.60
2023-02-03T08:41:47.007Z,8.60
2023-02-03T08:44:16.556Z,8.70
2023-02-03T08:46:45.377Z,8.70
2023-02-03T08:49:15.366Z,8.80
2023-02-03T08:51:46.221Z,8.80
2023-02-03T08:54:16.804Z,8.80
2023-02-03T08:56:48.787Z,8.80
2023-02-03T08:59:16.751Z,8.90
2023-02-03T09:01:46.998Z,8.90
2023-02-03T09:04:18.550Z,9.00
2023-02-03T09:06:47.990Z,9.00
2023-02-03T09:09:17.906Z,9.10
2023-02-03T09:11:46.203Z,9.20
2023-02-03T09:14:14.178Z,9.20
2023-02-03T09:16:44.439Z,9.20
2023-02-03T09:19:13.802Z,9.20
2023-02-03T09:21:47.202Z,9.20
2023-02-03T09:24:20.093Z,9.20
2023-02-03T09:26:50.093Z,9.10
2023-02-03T09:29:20.171Z,9.20
2023-02-03T09:31:52.682Z,9.20
2023-02-03T09:34:23.606Z,9.20
2023-02-03T09:36:52.648Z,9.30
2023-02-03T09:39:22.912Z,9.30
2023-02-03T09:42:02.617Z,9.20
2023-02-03T09:44:35.214Z,9.30
2023-02-03T09:47:08.173Z,9.30
2023-02-03T09:49:39.836Z,9.40
2023-02-03T09:52:11.673Z,9.40
2023-02-03T09:54:45.781Z,9.40
2023-02-03T09:57:15.938Z,9.40
2023-02-03T09:59:45.779Z,9.40
2023-02-03T10:02:22.101Z,9.40
2023-02-03T10:04:54.204Z,9.50
2023-02-03T10:07:26.695Z,9.60
2023-02-03T10:10:03.348Z,9.60
2023-02-03T10:12:49.757Z,9.70
2023-02-03T10:15:33.357Z,9.70
2023-02-03T10:18:05.608Z,9.70
2023-02-03T10:20:37.019Z,9.80
2023-02-03T10:23:08.143Z,9.80
2023-02-03T10:25:40.931Z,9.90
2023-02-03T10:28:11.864Z,9.90
2023-02-03T10:30:45.824Z,9.90
2023-02-03T10:33:16.393Z,9.90
2023-02-03T10:35:49.064Z,9.90
2023-02-03T10:38:23.359Z,9.90
2023-02-03T10:40:53.704Z,9.90
2023-02-03T10:43:39.929Z,9.90
2023-02-03T10:46:08.135Z,9.90
2023-02-03T10:48:37.369Z,9.90
2023-02-03T10:51:05.671Z,9.80
2023-02-03T10:53:35.242Z,9.80
2023-02-03T10:56:06.863Z,9.80
2023-02-03T10:58:36.269Z,9.80
2023-02-03T11:01:10.498Z,9.80
2023-02-03T11:03:39.447Z,9.80
2023-02-03T11:06:09.146Z,9.80
2023-02-03T11:08:38.539Z,9.90
2023-02-03T11:11:09.426Z,9.90
2023-02-03T11:13:37.578Z,9.90
2023-02-03T11:16:07.514Z,10.00
2023-02-03T11:18:44.732Z,10.00
2023-02-03T11:21:18.297Z,10.10
2023-02-03T11:23:49.174Z,10.10
2023-02-03T11:26:20.484Z,10.30
2023-02-03T11:28:50.528Z,10.40
2023-02-03T11:31:21.284Z,10.60
2023-02-03T11:33:50.373Z,10.80
2023-02-03T11:36:18.976Z,10.90
2023-02-03T11:38:47.514Z,10.90
2023-02-03T11:41:23.867Z,11.00
2023-02-03T11:43:57.935Z,11.10
2023-02-03T11:46:26.235Z,11.10
2023-02-03T11:49:01.966Z,11.10
2023-02-03T11:51:35.440Z,11.00
2023-02-03T11:54:13.857Z,11.10
2023-02-03T11:56:55.203Z,11.30
2023-02-03T11:59:38.989Z,11.30
2023-02-03T12:02:34.877Z,11.30
2023-02-03T12:05:17.500Z,11.30
2023-02-03T12:07:52.004Z,11.10
2023-02-03T12:10:28.934Z,11.00
2023-02-03T12:13:02.343Z,11.00
2023-02-03T12:15:52.497Z,11.10
2023-02-03T12:18:35.998Z,10.90
2023-02-03T12:21:14.318Z,10.70
2023-02-03T12:23:50.667Z,10.70
2023-02-03T12:26:26.676Z,10.80
2023-02-03T12:29:01.698Z,10.90
2023-02-03T12:31:36.989Z,11.00
2023-02-03T12:34:11.298Z,11.00
2023-02-03T12:36:41.923Z,11.10
2023-02-03T12:39:15.670Z,11.10
2023-02-03T12:41:47.112Z,11.20
2023-02-03T12:44:21.004Z,11.20
2023-02-03T12:46:52.130Z,11.10
2023-02-03T12:49:28.597Z,11.10
2023-02-03T12:52:00.137Z,11.00
2023-02-03T12:54:34.472Z,10.90
2023-02-03T12:57:08.891Z,10.80
2023-02-03T12:59:41.086Z,10.70
2023-02-03T13:02:14.985Z,10.60
2023-02-03T13:04:45.983Z,10.60
2023-02-03T13:07:18.450Z,10.60
2023-02-03T13:09:50.982Z,10.50
2023-02-03T13:12:26.640Z,10.40
2023-02-03T13:14:59.188Z,10.40
2023-02-03T13:17:29.993Z,10.40
2023-02-03T13:20:00.678Z,10.30
2023-02-03T13:22:28.975Z,10.20
2023-02-03T13:24:58.162Z,10.20
2023-02-03T13:27:39.173Z,10.20
2023-02-03T13:30:22.742Z,10.10
2023-02-03T13:33:05.279Z,10.00
2023-02-03T13:35:41.090Z,9.90
2023-02-03T13:38:23.950Z,9.80
2023-02-03T13:40:57.910Z,9.80
2023-02-03T13:43:38.357Z,9.80
2023-02-03T13:46:14.202Z,9.80
2023-02-03T13:48:46.582Z,9.80
2023-02-03T13:51:16.160Z,9.80
2023-02-03T13:53:47.952Z,9.80
2023-02-03T13:56:21.453Z,9.80
2023-02-03T13:59:06.172Z,9.80
2023-02-03T14:01:39.236Z,9.80
2023-02-03T14:04:08.983Z,9.60
2023-02-03T14:07:00.875Z,9.60
2023-02-03T14:09:38.439Z,9.60
2023-02-03T14:12:33.966Z,9.50
2023-02-03T14:15:06.855Z,9.40
2023-02-03T14:18:07.163Z,9.40
2023-02-03T14:20:43.407Z,9.40
2023-02-03T14:23:14.856Z,9.40
2023-02-03T14:25:44.914Z,9.30
2023-02-03T14:28:15.190Z,9.20
2023-02-03T14:31:03.023Z,9.20
2023-02-03T14:33:47.088Z,9.20
2023-02-03T14:36:33.949Z,9.20
2023-02-03T14:39:07.489Z,9.20
2023-02-03T14:41:45.079Z,9.20
2023-02-03T14:44:20.117Z,9.20
2023-02-03T14:46:59.340Z,9.10
2023-02-03T14:49:33.005Z,9.10
2023-02-03T14:52:09.885Z,9.10
2023-02-03T14:54:53.074Z,9.10
2023-02-03T14:57:29.420Z,9.00
2023-02-03T15:00:00.554Z,9.10
2023-02-03T15:02:31.476Z,9.00
2023-02-03T15:05:20.641Z,9.00
2023-02-03T15:07:49.686Z,9.00
2023-02-03T15:10:18.961Z,8.90
2023-02-03T15:12:53.167Z,8.90
2023-02-03T15:15:23.129Z,8.90
2023-02-03T15:17:52.779Z,8.90
2023-02-03T15:20:36.141Z,8.90
2023-02-03T15:23:05.105Z,8.90
2023-02-03T15:25:35.091Z,8.90
2023-02-03T15:28:24.544Z,8.90
2023-02-03T15:30:56.601Z,8.90
2023-02-03T15:33:28.947Z,8.90
2023-02-03T15:36:07.463Z,8.90
2023-02-03T15:38:37.765Z,8.90
2023-02-03T15:41:08.195Z,8.90
2023-02-03T15:43:40.292Z,8.90
2023-02-03T15:46:13.253Z,8.90
2023-02-03T15:48:43.495Z,8.80
2023-02-03T15:51:13.840Z,8.80
2023-02-03T15:53:48.003Z,8.80
2023-02-03T15:56:21.849Z,8.80
2023-02-03T15:58:51.869Z,8.80
2023-02-03T16:01:23.306Z,8.80
2023-02-03T16:03:53.879Z,8.80
2023-02-03T16:06:27.525Z,8.80
2023-02-03T16:08:56.050Z,8.70
2023-02-03T16:11:25.472Z,8.80
2023-02-03T16:13:56.873Z,8.80
2023-02-03T16:16:31.132Z,8.80
2023-02-03T16:19:05.546Z,8.80
2023-02-03T16:21:35.984Z,8.80
2023-02-03T16:24:05.447Z,8.80
2023-02-03T16:26:37.038Z,8.80
2023-02-03T16:29:33.918Z,8.80
2023-02-03T16:32:20.022Z,8.80
2023-02-03T16:35:05.578Z,8.80
2023-02-03T16:37:54.363Z,8.80
2023-02-03T16:40:41.254Z,8.80
2023-02-03T16:43:30.212Z,8.80
2023-02-03T16:46:18.344Z,8.70
2023-02-03T16:49:04.381Z,8.70
2023-02-03T16:51:39.892Z,8.70
2023-02-03T16:54:09.789Z,8.70
2023-02-03T16:56:38.087Z,8.70
2023-02-03T16:59:07.659Z,8.70
2023-02-03T17:01:37.498Z,8.70
2023-02-03T17:04:06.423Z,8.70
2023-02-03T17:06:34.858Z,8.70
2023-02-03T17:09:04.217Z,8.70
2023-02-03T17:11:33.455Z,8.70
2023-02-03T17:14:02.031Z,8.70
2023-02-03T17:16:30.753Z,8.70
2023-02-03T17:19:00.684Z,8.70
2023-02-03T17:21:31.046Z,8.70
2023-02-03T17:24:03.476Z,8.70
2023-02-03T17:26:32.087Z,8.70
2023-02-03T17:29:03.611Z,8.70
2023-02-03T17:31:33.250Z,8.70
2023-02-03T17:34:03.692Z,8.60
2023-02-03T17:36:32.439Z,8.70
2023-02-03T17:55:31.854Z,8.80
2023-02-03T17:58:00.538Z,8.80
2023-02-03T18:00:29.490Z,8.80
2023-02-03T18:02:59.199Z,8.80
2023-02-03T18:05:29.808Z,8.80
2023-02-03T18:08:03.041Z,8.90
2023-02-03T18:10:37.906Z,8.90
2023-02-03T18:13:06.296Z,8.90
2023-02-03T18:15:37.837Z,8.90
2023-02-03T18:18:06.715Z,8.90
2023-02-03T18:20:37.032Z,8.90
2023-02-03T18:23:05.457Z,8.90
2023-02-03T18:25:36.393Z,8.90
2023-02-03T18:28:15.659Z,8.90
2023-02-03T18:30:45.158Z,8.90
2023-02-03T18:33:16.651Z,8.90
2023-02-03T18:35:46.061Z,8.90
2023-02-03T18:38:15.978Z,8.90
2023-02-03T18:40:45.375Z,8.80
2023-02-03T18:43:15.360Z,8.90
2023-02-03T18:45:43.858Z,8.90
2023-02-03T18:48:11.916Z,8.90
2023-02-03T18:50:41.874Z,8.90
2023-02-03T18:53:12.269Z,8.90
2023-02-03T18:55:42.576Z,9.00
2023-02-03T18:58:12.127Z,9.00
2023-02-03T19:00:42.230Z,9.00
2023-02-03T19:03:10.868Z,9.00
2023-02-03T19:05:41.782Z,9.00
2023-02-03T19:08:11.496Z,9.00
2023-02-03T19:10:39.684Z,9.00
2023-02-03T19:13:13.353Z,9.00
2023-02-03T19:15:43.121Z,9.00
2023-02-03T19:18:11.575Z,9.00
2023-02-03T19:20:40.111Z,8.90
2023-02-03T19:23:12.034Z,8.90
2023-02-03T19:25:40.811Z,8.90
2023-02-03T19:28:17.473Z,8.90
2023-02-03T19:30:55.179Z,8.80
2023-02-03T19:33:32.443Z,8.80
2023-02-03T19:36:00.442Z,8.80
2023-02-03T19:38:30.524Z,8.60
2023-02-03T19:40:59.002Z,8.60
2023-02-03T19:43:28.743Z,8.50
2023-02-03T19:45:56.793Z,8.50
2023-02-03T19:48:25.114Z,8.50
2023-02-03T19:50:56.626Z,8.50
2023-02-03T19:53:27.631Z,8.50
2023-02-03T19:55:57.100Z,8.50
2023-02-03T19:58:25.587Z,8.50
2023-02-03T20:00:56.291Z,8.50
2023-02-03T20:03:27.934Z,8.50
2023-02-03T20:05:56.898Z,8.50
2023-02-03T20:08:25.920Z,8.50
2023-02-03T20:10:55.855Z,8.60
2023-02-03T20:13:29.292Z,8.50
2023-02-03T20:15:57.621Z,8.50
2023-02-03T20:18:26.070Z,8.50
2023-02-03T20:20:55.323Z,8.50
2023-02-03T20:23:24.897Z,8.50
2023-02-03T20:25:54.689Z,8.50
2023-02-03T20:28:24.498Z,8.50
2023-02-03T20:30:56.135Z,8.50
2023-02-03T20:33:27.343Z,8.50
2023-02-03T20:35:56.227Z,8.50
2023-02-03T20:38:25.304Z,8.50
2023-02-03T20:40:55.797Z,8.60
2023-02-03T20:43:26.435Z,8.60
2023-02-03T20:45:56.622Z,8.60
2023-02-03T20:48:26.884Z,8.70
2023-02-03T20:50:55.695Z,8.70
2023-02-03T20:53:26.344Z,8.70
2023-02-03T20:55:58.645Z,8.80
2023-02-03T20:58:28.638Z,8.70
2023-02-03T21:00:58.551Z,8.70
2023-02-03T21:03:45.167Z,8.80
2023-02-03T21:06:15.322Z,8.80
2023-02-03T21:08:44.584Z,8.90
2023-02-03T21:11:14.682Z,8.90
2023-02-03T21:13:45.745Z,8.90
2023-02-03T21:16:19.413Z,8.90
2023-02-03T21:18:52.921Z,8.90
2023-02-03T21:21:25.614Z,8.90
2023-02-03T21:23:54.510Z,8.90
2023-02-03T21:26:24.155Z,8.80
2023-02-03T21:28:55.121Z,8.80
2023-02-03T21:31:38.874Z,8.80
2023-02-03T21:34:16.090Z,8.80
2023-02-03T21:36:44.727Z,8.80
2023-02-03T21:39:27.155Z,8.90
2023-02-03T21:41:55.845Z,8.90
2023-02-03T21:44:30.789Z,8.90
2023-02-03T21:47:04.778Z,8.90
2023-02-03T21:49:33.843Z,9.00
2023-02-03T21:52:02.067Z,9.00
2023-02-03T21:54:31.340Z,8.90
2023-02-03T21:57:01.808Z,9.00
2023-02-03T21:59:38.898Z,9.00
2023-02-03T22:02:24.290Z,9.00
2023-02-03T22:05:03.724Z,9.00
2023-02-03T22:07:33.237Z,9.00
2023-02-03T22:10:01.261Z,9.00
2023-02-03T22:12:30.616Z,9.10
2023-02-03T22:15:02.459Z,9.10
2023-02-03T22:17:30.793Z,9.10
2023-02-03T22:19:59.987Z,9.10
2023-02-03T22:22:32.553Z,9.10
2023-02-03T22:25:00.658Z,9.10
2023-02-03T22:27:33.412Z,9.10
2023-02-03T22:30:05.680Z,9.10
2023-02-03T22:32:34.463Z,9.10
2023-02-03T22:38:06.615Z,9.10
2023-02-03T22:40:34.935Z,9.10
2023-02-03T22:43:03.683Z,9.10
2023-02-03T22:45:32.341Z,9.10
2023-02-03T22:48:00.982Z,9.10
2023-02-03T22:50:35.397Z,9.10
2023-02-03T22:53:07.170Z,9.10
2023-02-03T22:55:35.635Z,9.20
2023-02-03T22:58:04.032Z,9.10
2023-02-03T23:00:33.135Z,9.10
2023-02-03T23:03:01.665Z,9.10
2023-02-03T23:05:32.022Z,9.10
2023-02-03T23:08:00.439Z,9.10
2023-02-03T23:10:32.042Z,9.10
2023-02-03T23:13:01.684Z,9.20
2023-02-03T23:15:32.164Z,9.20
2023-02-03T23:18:00.691Z,9.30
2023-02-03T23:20:29.551Z,9.30
2023-02-03T23:22:58.086Z,9.30
2023-02-03T23:25:26.384Z,9.30
2023-02-03T23:27:56.170Z,9.30
2023-02-03T23:30:24.900Z,9.20
2023-02-03T23:32:52.959Z,9.20
2023-02-03T23:35:38.176Z,9.20
2023-02-03T23:38:07.047Z,9.20
2023-02-03T23:40:35.665Z,9.20
2023-02-03T23:43:05.545Z,9.20
2023-02-03T23:45:34.230Z,9.20
2023-02-03T23:48:02.706Z,9.10
2023-02-03T23:50:31.199Z,9.10
2023-02-03T23:52:59.454Z,9.10
2023-02-03T23:55:30.616Z,9.00
2023-02-03T23:57:59.559Z,9.00
